createdAt,value
2023-05-01T00:01:13.329Z,4.10
2023-05-01T00:03:41.271Z,4.50
2023-05-01T00:06:09.301Z,4.90
2023-05-01T00:08:37.219Z,5.17
2023-05-01T00:11:05.381Z,4.57
2023-05-01T00:13:34.528Z,4.40
2023-05-01T00:16:02.608Z,4.37
2023-05-01T00:18:31.301Z,4.70
2023-05-01T00:20:59.165Z,5.20
2023-05-01T00:23:27.769Z,4.27
2023-05-01T00:25:55.595Z,5.40
2023-05-01T00:28:23.378Z,4.70
2023-05-01T00:30:52.517Z,4.73
2023-05-01T00:33:20.611Z,4.87
2023-05-01T00:35:48.420Z,5.03
2023-05-01T00:38:16.196Z,4.87
2023-05-01T00:40:44.684Z,5.40
2023-05-01T00:43:14.453Z,4.67
2023-05-01T00:45:46.046Z,4.60
2023-05-01T00:48:16.520Z,4.90
2023-05-01T00:50:45.533Z,5.03
2023-05-01T00:53:13.678Z,5.10
2023-05-01T00:55:43.367Z,4.73
2023-05-01T00:58:11.861Z,4.90
2023-05-01T01:00:39.827Z,4.93
2023-05-01T01:03:07.681Z,4.63
2023-05-01T01:05:43.122Z,4.83
2023-05-01T01:08:20.718Z,4.43
2023-05-01T01:10:54.216Z,5.03
2023-05-01T01:13:29.133Z,4.50
2023-05-01T01:16:05.182Z,4.87
2023-05-01T01:18:39.241Z,4.60
2023-05-01T01:21:13.524Z,4.83
2023-05-01T01:24:22.105Z,4.70
2023-05-01T01:27:26.269Z,4.60
2023-05-01T01:30:22.874Z,5.07
2023-05-01T01:33:09.304Z,4.63
2023-05-01T01:35:42.713Z,4.60
2023-05-01T01:38:17.297Z,4.60
2023-05-01T01:40:51.662Z,5.63
2023-05-01T01:43:21.177Z,4.47
2023-05-01T01:45:53.892Z,5.00
2023-05-01T01:48:26.136Z,4.50
2023-05-01T01:50:59.234Z,4.53
2023-05-01T01:53:30.886Z,4.73
2023-05-01T01:56:03.040Z,4.70
2023-05-01T01:58:32.358Z,4.80
2023-05-01T02:01:00.860Z,4.70
2023-05-01T02:03:29.439Z,4.90
2023-05-01T02:06:00.910Z,5.53
2023-05-01T02:08:31.327Z,4.90
2023-05-01T02:11:01.954Z,4.90
2023-05-01T02:13:31.876Z,5.30
2023-05-01T02:16:00.956Z,5.10
2023-05-01T02:18:30.510Z,5.57
2023-05-01T02:21:01.885Z,5.20
2023-05-01T02:23:30.933Z,5.10
2023-05-01T02:26:01.869Z,4.93
2023-05-01T02:28:31.590Z,5.03
2023-05-01T02:31:00.150Z,5.83
2023-05-01T02:33:28.297Z,5.23
2023-05-01T02:35:56.118Z,6.00
2023-05-01T02:38:25.458Z,5.47
2023-05-01T02:40:55.909Z,5.73
2023-05-01T02:43:24.571Z,5.73
2023-05-01T02:45:54.489Z,5.67
2023-05-01T02:48:27.922Z,5.60
2023-05-01T02:50:57.368Z,6.50
2023-05-01T02:53:26.978Z,5.93
2023-05-01T02:55:54.882Z,6.00
2023-05-01T02:58:23.602Z,4.97
2023-05-01T03:00:51.538Z,5.43
2023-05-01T03:03:19.626Z,5.57
2023-05-01T03:05:47.631Z,5.50
2023-05-01T03:08:15.607Z,5.27
2023-05-01T03:10:44.765Z,6.23
2023-05-01T03:13:12.717Z,5.13
2023-05-01T03:15:41.327Z,5.33
2023-05-01T03:18:09.437Z,5.20
2023-05-01T03:20:37.512Z,5.60
2023-05-01T03:23:06.400Z,5.07
2023-05-01T03:25:34.231Z,5.37
2023-05-01T03:28:04.064Z,5.40
2023-05-01T03:30:34.806Z,5.23
2023-05-01T03:33:02.715Z,5.67
2023-05-01T03:35:30.638Z,5.63
2023-05-01T03:37:58.590Z,5.07
2023-05-01T03:40:26.401Z,5.07
2023-05-01T03:42:54.164Z,5.07
2023-05-01T03:45:23.324Z,4.67
2023-05-01T03:47:51.235Z,5.07
2023-05-01T03:50:19.164Z,4.97
2023-05-01T03:52:46.947Z,9.93
2023-05-01T03:55:16.699Z,5.20
2023-05-01T03:57:47.046Z,4.90
2023-05-01T04:00:15.221Z,4.73
2023-05-01T04:02:44.573Z,4.30
2023-05-01T04:05:13.261Z,4.97
2023-05-01T04:07:41.634Z,4.87
2023-05-01T04:10:10.631Z,4.90
2023-05-01T04:12:38.434Z,4.60
2023-05-01T04:15:07.406Z,5.90
2023-05-01T04:17:36.904Z,5.40
2023-05-01T04:20:07.167Z,4.97
2023-05-01T04:22:35.116Z,5.40
2023-05-01T04:25:02.935Z,5.37
2023-05-01T04:27:30.731Z,4.67
2023-05-01T04:29:59.096Z,4.87
2023-05-01T04:32:27.260Z,6.50
2023-05-01T04:34:55.175Z,5.17
2023-05-01T04:37:25.003Z,5.03
2023-05-01T04:39:53.368Z,5.03
2023-05-01T04:42:21.332Z,5.10
2023-05-01T04:44:49.117Z,6.03
2023-05-01T04:47:16.929Z,7.97
2023-05-01T04:49:44.695Z,5.07
2023-05-01T04:52:12.516Z,4.90
2023-05-01T04:54:41.664Z,5.90
2023-05-01T04:57:09.685Z,5.37
2023-05-01T04:59:37.717Z,6.27
2023-05-01T05:02:05.735Z,5.43
2023-05-01T05:04:34.381Z,5.53
2023-05-01T05:07:02.190Z,6.00
2023-05-01T05:09:29.989Z,5.13
2023-05-01T05:11:59.133Z,5.80
2023-05-01T05:14:26.904Z,5.63
2023-05-01T05:16:54.737Z,5.27
2023-05-01T05:19:22.555Z,5.07
2023-05-01T05:21:50.349Z,5.10
2023-05-01T05:24:18.263Z,5.33
2023-05-01T05:26:46.135Z,5.93
2023-05-01T05:29:15.615Z,5.53
2023-05-01T05:31:43.575Z,4.77
2023-05-01T05:34:11.412Z,5.40
2023-05-01T05:36:39.291Z,5.87
2023-05-01T05:39:07.270Z,5.40
2023-05-01T05:41:35.093Z,5.20
2023-05-01T05:44:03.069Z,6.47
2023-05-01T05:46:32.347Z,7.57
2023-05-01T05:49:00.261Z,7.80
2023-05-01T05:51:28.145Z,6.03
2023-05-01T05:53:56.024Z,9.80
2023-05-01T05:56:24.467Z,7.97
2023-05-01T05:58:52.282Z,9.50
2023-05-01T06:01:20.068Z,6.50
2023-05-01T06:03:49.380Z,6.43
2023-05-01T06:06:17.649Z,7.50
2023-05-01T06:08:46.252Z,9.00
2023-05-01T06:11:14.136Z,6.93
2023-05-01T06:13:42.004Z,7.37
2023-05-01T06:16:10.036Z,6.93
2023-05-01T06:18:37.960Z,7.77
2023-05-01T06:21:07.341Z,6.10
2023-05-01T06:23:35.136Z,7.10
2023-05-01T06:26:02.957Z,6.60
2023-05-01T06:28:30.740Z,7.30
2023-05-01T06:30:58.584Z,6.80
2023-05-01T06:33:26.407Z,6.87
2023-05-01T06:35:54.742Z,7.10
2023-05-01T06:38:26.296Z,6.07
2023-05-01T06:40:54.941Z,6.30
2023-05-01T06:43:22.744Z,6.87
2023-05-01T06:45:50.631Z,6.77
2023-05-01T06:48:18.436Z,6.27
2023-05-01T06:50:46.501Z,5.90
2023-05-01T06:53:14.380Z,6.30
2023-05-01T06:55:43.500Z,6.57
2023-05-01T06:58:22.779Z,6.07
2023-05-01T07:00:52.358Z,6.40
2023-05-01T07:03:20.379Z,5.93
2023-05-01T07:05:48.258Z,6.03
2023-05-01T07:08:16.075Z,5.77
2023-05-01T07:10:45.276Z,6.30
2023-05-01T07:13:13.181Z,6.10
2023-05-01T07:15:40.976Z,6.27
2023-05-01T07:18:08.879Z,7.30
2023-05-01T07:20:36.870Z,6.60
2023-05-01T07:23:07.121Z,5.80
2023-05-01T07:25:37.543Z,5.47
2023-05-01T07:28:08.090Z,6.27
2023-05-01T07:30:37.452Z,6.17
2023-05-01T07:33:05.847Z,6.43
2023-05-01T07:35:33.945Z,5.87
2023-05-01T07:38:01.748Z,7.70
2023-05-01T07:40:29.602Z,6.77
2023-05-01T07:42:57.396Z,7.40
2023-05-01T07:45:26.831Z,6.30
2023-05-01T07:47:54.668Z,6.10
2023-05-01T07:50:22.715Z,6.77
2023-05-01T07:52:50.539Z,5.97
2023-05-01T07:55:19.204Z,6.23
2023-05-01T07:57:47.013Z,13.23
2023-05-01T08:00:16.008Z,11.77
2023-05-01T08:02:45.409Z,21.57
2023-05-01T08:05:13.290Z,5.93
2023-05-01T08:07:41.109Z,5.30
2023-05-01T08:10:09.840Z,5.97
2023-05-01T08:12:37.659Z,5.20
2023-05-01T08:15:06.312Z,5.27
2023-05-01T08:17:34.312Z,5.37
2023-05-01T08:20:04.104Z,5.20
2023-05-01T08:22:32.300Z,5.00
2023-05-01T08:25:00.070Z,4.90
2023-05-01T08:27:27.957Z,4.80
2023-05-01T08:29:55.960Z,4.73
2023-05-01T08:32:24.184Z,4.47
2023-05-01T08:34:52.132Z,4.57
2023-05-01T08:37:21.270Z,4.90
2023-05-01T08:39:49.069Z,4.37
2023-05-01T08:42:17.556Z,4.40
2023-05-01T08:44:47.334Z,4.63
2023-05-01T08:47:18.456Z,4.93
2023-05-01T08:49:47.203Z,4.43
2023-05-01T08:52:16.230Z,4.53
2023-05-01T08:54:47.180Z,4.20
2023-05-01T08:57:15.400Z,4.60
2023-05-01T08:59:43.408Z,4.00
2023-05-01T09:02:11.389Z,4.33
2023-05-01T09:04:40.552Z,3.90
2023-05-01T09:07:08.555Z,4.60
2023-05-01T09:09:36.642Z,4.13
2023-05-01T09:12:13.797Z,4.57
2023-05-01T09:14:41.783Z,3.93
2023-05-01T09:17:09.834Z,4.27
2023-05-01T09:19:37.681Z,3.83
2023-05-01T09:22:05.530Z,3.87
2023-05-01T09:24:33.429Z,4.40
2023-05-01T09:27:01.764Z,3.93
2023-05-01T09:29:41.826Z,4.30
2023-05-01T09:32:17.613Z,3.97
2023-05-01T09:34:45.642Z,4.20
2023-05-01T09:37:25.198Z,4.10
2023-05-01T09:40:03.808Z,3.57
2023-05-01T09:42:32.309Z,4.23
2023-05-01T09:45:01.871Z,4.20
2023-05-01T09:47:30.585Z,3.80
2023-05-01T09:49:59.658Z,4.30
2023-05-01T09:52:28.831Z,4.60
2023-05-01T09:55:16.293Z,3.90
2023-05-01T09:57:45.298Z,4.10
2023-05-01T10:00:15.929Z,3.60
2023-05-01T10:02:47.017Z,4.27
2023-05-01T10:05:15.742Z,3.97
2023-05-01T10:07:58.869Z,4.00
2023-05-01T10:10:27.411Z,4.17
2023-05-01T10:12:55.467Z,4.13
2023-05-01T10:15:36.959Z,3.60
2023-05-01T10:18:05.555Z,3.67
2023-05-01T10:20:33.594Z,3.67
2023-05-01T10:23:02.491Z,3.80
2023-05-01T10:25:30.805Z,3.70
2023-05-01T10:27:59.403Z,2.90
2023-05-01T10:30:29.936Z,3.37
2023-05-01T10:32:58.533Z,3.53
2023-05-01T10:35:30.708Z,3.30
2023-05-01T10:38:01.973Z,3.37
2023-05-01T10:40:49.054Z,2.87
2023-05-01T10:43:25.858Z,3.37
2023-05-01T10:45:56.042Z,3.30
2023-05-01T10:48:54.234Z,3.50
2023-05-01T10:51:26.581Z,3.50
2023-05-01T10:54:24.436Z,3.07
2023-05-01T10:56:52.436Z,3.40
2023-05-01T10:59:20.412Z,3.23
2023-05-01T11:01:51.962Z,3.37
2023-05-01T11:04:56.398Z,3.40
2023-05-01T11:07:25.350Z,3.13
2023-05-01T11:09:57.484Z,3.33
2023-05-01T11:12:54.003Z,3.33
2023-05-01T11:15:32.632Z,4.10
2023-05-01T11:18:03.499Z,3.67
2023-05-01T11:21:02.145Z,3.83
2023-05-01T11:23:30.054Z,3.80
2023-05-01T11:26:08.110Z,3.60
2023-05-01T11:28:36.723Z,3.93
2023-05-01T11:31:04.712Z,3.57
2023-05-01T11:33:34.708Z,3.80
2023-05-01T11:36:03.330Z,4.23
2023-05-01T11:38:31.340Z,4.10
2023-05-01T11:41:02.090Z,4.50
2023-05-01T11:43:29.954Z,4.43
2023-05-01T11:46:02.392Z,5.47
2023-05-01T11:48:33.031Z,4.53
2023-05-01T11:51:00.906Z,4.00
2023-05-01T11:53:30.367Z,11.30
2023-05-01T11:55:59.471Z,20.30
2023-05-01T11:58:36.216Z,8.63
2023-05-01T12:01:04.452Z,3.50
2023-05-01T12:03:43.833Z,13.70
2023-05-01T12:06:13.736Z,5.43
2023-05-01T12:08:45.773Z,4.77
2023-05-01T12:11:13.793Z,12.13
2023-05-01T12:13:42.216Z,4.77
2023-05-01T12:16:11.551Z,3.80
2023-05-01T12:18:39.478Z,5.20
2023-05-01T12:21:17.037Z,3.53
2023-05-01T12:23:45.094Z,3.07
2023-05-01T12:26:19.895Z,2.87
2023-05-01T12:28:57.985Z,3.60
2023-05-01T12:31:26.787Z,2.90
2023-05-01T12:33:55.962Z,3.13
2023-05-01T12:36:27.289Z,3.20
2023-05-01T12:39:01.413Z,3.60
2023-05-01T12:41:40.285Z,14.13
2023-05-01T12:44:22.538Z,3.03
2023-05-01T12:47:00.025Z,3.40
2023-05-01T12:49:29.208Z,2.93
2023-05-01T12:52:00.616Z,2.87
2023-05-01T12:54:30.574Z,2.90
2023-05-01T12:57:07.881Z,2.67
2023-05-01T12:59:37.389Z,2.40
2023-05-01T13:02:07.031Z,2.67
2023-05-01T13:04:35.711Z,2.90
2023-05-01T13:07:12.392Z,2.63
2023-05-01T13:09:40.437Z,2.20
2023-05-01T13:12:09.789Z,2.90
2023-05-01T13:14:39.035Z,2.77
2023-05-01T13:17:09.361Z,2.77
2023-05-01T13:19:38.104Z,2.60
2023-05-01T13:22:07.673Z,2.20
2023-05-01T13:24:40.128Z,2.90
2023-05-01T13:27:09.710Z,2.80
2023-05-01T13:29:38.411Z,2.40
2023-05-01T13:32:07.713Z,2.93
2023-05-01T13:34:37.501Z,2.40
2023-05-01T13:37:10.764Z,2.30
2023-05-01T13:39:41.130Z,2.30
2023-05-01T13:42:09.347Z,2.50
2023-05-01T13:44:44.258Z,2.50
2023-05-01T13:47:16.092Z,2.50
2023-05-01T13:49:44.212Z,1.97
2023-05-01T13:52:17.082Z,2.33
2023-05-01T13:54:45.053Z,2.47
2023-05-01T13:57:13.251Z,2.60
2023-05-01T13:59:43.120Z,2.40
2023-05-01T14:02:21.653Z,2.20
2023-05-01T14:04:50.122Z,2.13
2023-05-01T14:07:21.793Z,2.43
2023-05-01T14:09:55.099Z,2.60
2023-05-01T14:12:29.169Z,2.40
2023-05-01T14:14:57.431Z,2.10
2023-05-01T14:17:30.715Z,3.20
2023-05-01T14:19:58.811Z,2.33
2023-05-01T14:22:30.786Z,2.53
2023-05-01T14:24:59.469Z,2.23
2023-05-01T14:27:27.598Z,2.33
2023-05-01T14:29:55.857Z,1.70
2023-05-01T14:32:23.679Z,2.10
2023-05-01T14:34:52.493Z,1.97
2023-05-01T14:37:20.310Z,1.60
2023-05-01T14:39:49.430Z,1.50
2023-05-01T14:42:17.303Z,1.80
2023-05-01T14:44:45.285Z,2.27
2023-05-01T14:47:20.535Z,2.33
2023-05-01T14:49:53.330Z,2.50
2023-05-01T14:52:21.315Z,2.10
2023-05-01T14:54:52.429Z,2.60
2023-05-01T14:57:20.346Z,3.23
2023-05-01T14:59:48.138Z,2.37
2023-05-01T15:02:16.035Z,2.57
2023-05-01T15:04:45.329Z,2.33
2023-05-01T15:07:13.162Z,2.10
2023-05-01T15:09:42.686Z,2.20
2023-05-01T15:12:11.880Z,1.90
2023-05-01T15:14:39.687Z,2.47
2023-05-01T15:17:07.536Z,2.10
2023-05-01T15:19:35.426Z,2.67
2023-05-01T15:22:04.129Z,2.77
2023-05-01T15:24:32.211Z,2.23
2023-05-01T15:27:00.032Z,2.70
2023-05-01T15:29:29.196Z,2.13
2023-05-01T15:32:08.523Z,2.30
2023-05-01T15:34:39.792Z,2.53
2023-05-01T15:37:07.703Z,2.07
2023-05-01T15:39:35.506Z,2.07
2023-05-01T15:42:03.767Z,2.03
2023-05-01T15:44:33.041Z,2.40
2023-05-01T15:47:00.932Z,2.50
2023-05-01T15:49:28.741Z,2.20
2023-05-01T15:51:56.564Z,2.13
2023-05-01T15:54:24.612Z,2.50
2023-05-01T15:56:52.639Z,2.13
2023-05-01T15:59:20.664Z,2.03
2023-05-01T16:01:49.928Z,2.47
2023-05-01T16:04:17.740Z,2.30
2023-05-01T16:06:45.943Z,2.00
2023-05-01T16:09:14.181Z,2.20
2023-05-01T16:11:42.068Z,2.67
2023-05-01T16:14:12.428Z,1.90
2023-05-01T16:16:42.834Z,2.20
2023-05-01T16:19:16.033Z,1.90
2023-05-01T16:21:44.012Z,1.93
2023-05-01T16:24:12.289Z,2.03
2023-05-01T16:26:41.765Z,1.87
2023-05-01T16:29:09.611Z,2.03
2023-05-01T16:31:40.951Z,2.70
2023-05-01T16:34:13.964Z,2.17
2023-05-01T16:36:43.370Z,2.23
2023-05-01T16:39:12.370Z,2.30
2023-05-01T16:41:45.333Z,2.57
2023-05-01T16:44:13.825Z,2.93
2023-05-01T16:46:42.601Z,2.00
2023-05-01T16:49:14.275Z,2.17
2023-05-01T16:51:42.868Z,2.23
2023-05-01T16:54:11.402Z,2.17
2023-05-01T16:56:39.573Z,2.27
2023-05-01T16:59:07.401Z,2.50
2023-05-01T17:01:35.618Z,2.43
2023-05-01T17:04:03.732Z,2.20
2023-05-01T17:06:32.999Z,2.40
2023-05-01T17:09:00.919Z,3.87
2023-05-01T17:11:31.168Z,2.33
2023-05-01T17:13:59.792Z,2.60
2023-05-01T17:16:27.819Z,2.50
2023-05-01T17:18:55.987Z,3.03
2023-05-01T17:21:24.664Z,2.77
2023-05-01T17:23:54.686Z,2.90
2023-05-01T17:26:22.801Z,2.97
2023-05-01T17:28:50.749Z,2.70
2023-05-01T17:31:19.926Z,2.50
2023-05-01T17:33:49.806Z,2.77
2023-05-01T17:36:17.775Z,2.57
2023-05-01T17:38:45.599Z,2.53
2023-05-01T17:41:14.822Z,2.47
2023-05-01T17:43:44.648Z,2.70
2023-05-01T17:46:14.040Z,2.70
2023-05-01T17:48:43.112Z,2.47
2023-05-01T17:51:10.970Z,2.50
2023-05-01T17:53:38.754Z,2.80
2023-05-01T17:56:06.650Z,2.70
2023-05-01T17:58:36.651Z,2.50
2023-05-01T18:01:05.864Z,3.20
2023-05-01T18:03:33.839Z,2.53
2023-05-01T18:06:02.856Z,2.57
2023-05-01T18:08:30.814Z,2.57
2023-05-01T18:10:58.632Z,2.40
2023-05-01T18:13:28.246Z,2.10
2023-05-01T18:15:57.680Z,2.00
2023-05-01T18:18:25.595Z,2.93
2023-05-01T18:20:53.467Z,3.23
2023-05-01T18:23:21.222Z,2.67
2023-05-01T18:25:49.021Z,2.47
2023-05-01T18:28:18.400Z,2.50
2023-05-01T18:30:46.203Z,2.50
2023-05-01T18:33:15.578Z,2.63
2023-05-01T18:35:43.716Z,2.80
2023-05-01T18:38:12.219Z,2.50
2023-05-01T18:40:40.311Z,2.80
2023-05-01T18:43:08.111Z,3.00
2023-05-01T18:45:35.994Z,3.00
2023-05-01T18:48:04.046Z,3.00
2023-05-01T18:50:33.308Z,3.33
2023-05-01T18:53:01.122Z,3.40
2023-05-01T18:55:28.974Z,3.33
2023-05-01T18:57:56.894Z,4.50
2023-05-01T19:00:25.965Z,6.63
2023-05-01T19:02:53.821Z,8.77
2023-05-01T19:05:22.561Z,4.20
2023-05-01T19:07:55.027Z,8.30
2023-05-01T19:10:22.874Z,3.90
2023-05-01T19:12:50.833Z,3.87
2023-05-01T19:15:18.841Z,3.50
2023-05-01T19:17:46.818Z,4.80
2023-05-01T19:20:14.675Z,4.97
2023-05-01T19:22:42.539Z,4.10
2023-05-01T19:25:12.008Z,4.80
2023-05-01T19:27:39.838Z,4.83
2023-05-01T19:30:08.987Z,5.10
2023-05-01T19:32:37.000Z,4.43
2023-05-01T19:35:05.628Z,4.40
2023-05-01T19:37:33.441Z,5.10
2023-05-01T19:40:01.462Z,4.80
2023-05-01T19:42:31.553Z,3.97
2023-05-01T19:44:59.372Z,3.37
2023-05-01T19:47:27.275Z,3.90
2023-05-01T19:49:55.108Z,3.80
2023-05-01T19:52:22.968Z,3.90
2023-05-01T19:54:50.796Z,3.77
2023-05-01T19:57:19.121Z,3.33
2023-05-01T19:59:49.032Z,3.30
2023-05-01T20:02:16.920Z,3.37
2023-05-01T20:04:44.837Z,3.70
2023-05-01T20:07:12.800Z,5.33
2023-05-01T20:09:40.650Z,4.57
2023-05-01T20:12:08.564Z,3.20
2023-05-01T20:14:36.447Z,3.33
2023-05-01T20:17:07.128Z,3.03
2023-05-01T20:19:35.614Z,3.33
2023-05-01T20:22:04.250Z,3.67
2023-05-01T20:24:32.731Z,4.27
2023-05-01T20:27:00.595Z,3.33
2023-05-01T20:29:28.444Z,3.20
2023-05-01T20:31:56.349Z,3.03
2023-05-01T20:34:25.888Z,3.00
2023-05-01T20:36:53.787Z,3.13
2023-05-01T20:39:21.625Z,3.37
2023-05-01T20:41:49.512Z,3.20
2023-05-01T20:44:17.347Z,2.90
2023-05-01T20:46:46.768Z,3.47
2023-05-01T20:49:15.992Z,3.40
2023-05-01T20:51:45.396Z,3.40
2023-05-01T20:54:13.588Z,3.23
2023-05-01T20:56:41.643Z,3.97
2023-05-01T20:59:09.604Z,3.60
2023-05-01T21:01:37.412Z,2.73
2023-05-01T21:04:06.364Z,3.50
2023-05-01T21:06:35.037Z,3.07
2023-05-01T21:09:05.904Z,2.60
2023-05-01T21:11:33.670Z,3.00
2023-05-01T21:14:02.192Z,2.60
2023-05-01T21:16:30.032Z,3.40
2023-05-01T21:18:57.899Z,2.50
2023-05-01T21:21:26.370Z,2.83
2023-05-01T21:23:54.277Z,2.90
2023-05-01T21:26:23.419Z,2.93
2023-05-01T21:28:51.372Z,2.80
2023-05-01T21:31:19.630Z,3.13
2023-05-01T21:33:47.837Z,2.97
2023-05-01T21:36:18.879Z,2.80
2023-05-01T21:38:46.990Z,3.20
2023-05-01T21:41:16.435Z,2.97
2023-05-01T21:43:45.598Z,2.80
2023-05-01T21:46:17.828Z,2.90
2023-05-01T21:48:50.540Z,2.80
2023-05-01T21:51:19.120Z,3.00
2023-05-01T21:53:47.028Z,2.97
2023-05-01T21:56:15.410Z,2.97
2023-05-01T21:58:43.455Z,2.70
2023-05-01T22:01:14.309Z,2.70
2023-05-01T22:03:44.544Z,2.80
2023-05-01T22:06:12.526Z,2.43
2023-05-01T22:08:40.805Z,2.70
2023-05-01T22:11:08.686Z,2.80
2023-05-01T22:13:36.571Z,2.93
2023-05-01T22:16:05.194Z,3.20
2023-05-01T22:18:34.547Z,2.67
2023-05-01T22:21:03.369Z,3.30
2023-05-01T22:23:31.386Z,3.13
2023-05-01T22:26:00.520Z,3.47
2023-05-01T22:28:29.039Z,3.03
2023-05-01T22:30:56.880Z,2.57
2023-05-01T22:33:24.672Z,2.97
2023-05-01T22:35:53.833Z,3.10
2023-05-01T22:38:21.615Z,2.70
2023-05-01T22:40:49.393Z,3.10
2023-05-01T22:43:17.199Z,3.60
2023-05-01T22:45:45.016Z,3.13
2023-05-01T22:48:12.865Z,2.80
2023-05-01T22:50:42.700Z,2.67
2023-05-01T22:53:11.962Z,2.90
2023-05-01T22:55:39.830Z,3.23
2023-05-01T22:58:07.639Z,2.90
2023-05-01T23:00:35.467Z,3.20
2023-05-01T23:03:03.874Z,3.10
2023-05-01T23:05:31.826Z,3.00
2023-05-01T23:07:59.654Z,3.30
2023-05-01T23:10:30.323Z,3.13
2023-05-01T23:12:58.931Z,3.37
2023-05-01T23:15:27.140Z,3.30
2023-05-01T23:17:55.301Z,5.50
2023-05-01T23:20:24.568Z,4.70
2023-05-01T23:22:52.667Z,4.93
2023-05-01T23:25:24.639Z,5.27
2023-05-01T23:27:56.211Z,4.93
2023-05-01T23:30:24.292Z,4.40
2023-05-01T23:32:53.057Z,4.03
2023-05-01T23:35:24.289Z,3.57
2023-05-01T23:37:53.509Z,3.37
2023-05-01T23:40:21.469Z,3.60
2023-05-01T23:42:49.825Z,3.53
2023-05-01T23:45:19.250Z,3.50
2023-05-01T23:47:47.347Z,3.90
2023-05-01T23:50:15.283Z,4.00
2023-05-01T23:52:43.358Z,3.17
2023-05-01T23:55:11.212Z,3.67
2023-05-01T23:57:39.297Z,3.27
